sensor_id;sensor_type;location;lat;lon;timestamp;pressure;altitude;pressure_sealevel;temperature;humidity
19736;BME280;32064;49.310;8.646;2022-11-09T00:00:19;100113.34;;;15.42;86.39
19736;BME280;32064;49.310;8.646;2022-11-09T00:02:44;100119.91;;;15.38;86.57
19736;BME280;32064;49.310;8.646;2022-11-09T00:05:10;100118.41;;;15.35;85.49
19736;BME280;32064;49.310;8.646;2022-11-09T00:07:35;100115.56;;;15.37;86.29
19736;BME280;32064;49.310;8.646;2022-11-09T00:10:02;100123.25;;;15.40;85.69
19736;BME280;32064;49.310;8.646;2022-11-09T00:12:27;100124.09;;;15.40;85.66
19736;BME280;32064;49.310;8.646;2022-11-09T00:14:52;100122.69;;;15.36;86.80
19736;BME280;32064;49.310;8.646;2022-11-09T00:17:18;100130.25;;;15.31;86.82
19736;BME280;32064;49.310;8.646;2022-11-09T00:19:43;100119.41;;;15.24;87.70
19736;BME280;32064;49.310;8.646;2022-11-09T00:22:09;100119.28;;;15.26;87.53
19736;BME280;32064;49.310;8.646;2022-11-09T00:24:34;100136.84;;;15.27;87.68
19736;BME280;32064;49.310;8.646;2022-11-09T00:26:59;100127.88;;;15.28;87.62
19736;BME280;32064;49.310;8.646;2022-11-09T00:29:25;100140.47;;;15.26;87.67
19736;BME280;32064;49.310;8.646;2022-11-09T00:31:50;100153.56;;;15.27;86.78
19736;BME280;32064;49.310;8.646;2022-11-09T00:34:15;100159.56;;;15.30;87.81
19736;BME280;32064;49.310;8.646;2022-11-09T00:36:41;100159.41;;;15.31;87.87
19736;BME280;32064;49.310;8.646;2022-11-09T00:39:07;100178.81;;;15.32;87.69
19736;BME280;32064;49.310;8.646;2022-11-09T00:41:32;100168.06;;;15.33;87.61
19736;BME280;32064;49.310;8.646;2022-11-09T00:43:58;100166.25;;;15.34;87.79
19736;BME280;32064;49.310;8.646;2022-11-09T00:46:23;100159.13;;;15.34;87.68
19736;BME280;32064;49.310;8.646;2022-11-09T00:48:49;100159.97;;;15.35;86.89
19736;BME280;32064;49.310;8.646;2022-11-09T00:51:14;100147.97;;;15.31;86.64
19736;BME280;32064;49.310;8.646;2022-11-09T00:53:39;100158.03;;;15.27;86.92
19736;BME280;32064;49.310;8.646;2022-11-09T00:56:11;100191.13;;;15.23;86.50
19736;BME280;32064;49.310;8.646;2022-11-09T00:58:37;100202.84;;;15.20;86.94
19736;BME280;32064;49.310;8.646;2022-11-09T01:01:14;100183.75;;;15.07;87.52
19736;BME280;32064;49.310;8.646;2022-11-09T01:03:41;100172.03;;;15.10;87.05
19736;BME280;32064;49.310;8.646;2022-11-09T01:06:06;100173.69;;;15.11;87.46
19736;BME280;32064;49.310;8.646;2022-11-09T01:08:33;100167.03;;;15.07;87.90
19736;BME280;32064;49.310;8.646;2022-11-09T01:11:07;100181.09;;;14.97;87.40
19736;BME280;32064;49.310;8.646;2022-11-09T01:13:33;100190.88;;;14.77;89.04
19736;BME280;32064;49.310;8.646;2022-11-09T01:16:02;100198.25;;;14.93;87.86
19736;BME280;32064;49.310;8.646;2022-11-09T01:18:28;100197.44;;;14.93;88.30
19736;BME280;32064;49.310;8.646;2022-11-09T01:20:54;100194.78;;;14.83;88.23
19736;BME280;32064;49.310;8.646;2022-11-09T01:23:19;100185.88;;;14.84;88.31
19736;BME280;32064;49.310;8.646;2022-11-09T01:25:45;100174.31;;;14.75;89.18
19736;BME280;32064;49.310;8.646;2022-11-09T01:28:11;100181.97;;;14.78;88.81
19736;BME280;32064;49.310;8.646;2022-11-09T01:30:38;100184.75;;;14.77;88.80
19736;BME280;32064;49.310;8.646;2022-11-09T01:33:06;100172.06;;;14.80;87.99
19736;BME280;32064;49.310;8.646;2022-11-09T01:35:34;100183.22;;;14.74;89.23
19736;BME280;32064;49.310;8.646;2022-11-09T01:38:01;100173.75;;;14.81;89.29
19736;BME280;32064;49.310;8.646;2022-11-09T01:40:27;100175.69;;;14.79;88.67
19736;BME280;32064;49.310;8.646;2022-11-09T01:42:53;100167.19;;;14.76;89.16
19736;BME280;32064;49.310;8.646;2022-11-09T01:45:23;100168.59;;;14.70;88.94
19736;BME280;32064;49.310;8.646;2022-11-09T01:48:01;100163.41;;;14.69;89.28
19736;BME280;32064;49.310;8.646;2022-11-09T01:50:44;100163.84;;;14.74;88.56
19736;BME280;32064;49.310;8.646;2022-11-09T01:53:19;100162.16;;;14.63;89.43
19736;BME280;32064;49.310;8.646;2022-11-09T01:55:47;100154.34;;;14.71;88.87
19736;BME280;32064;49.310;8.646;2022-11-09T01:58:17;100153.53;;;14.71;88.77
19736;BME280;32064;49.310;8.646;2022-11-09T02:00:47;100149.63;;;14.65;89.41
19736;BME280;32064;49.310;8.646;2022-11-09T02:03:34;100142.09;;;14.60;88.80
19736;BME280;32064;49.310;8.646;2022-11-09T02:06:05;100145.75;;;14.69;88.38
19736;BME280;32064;49.310;8.646;2022-11-09T02:08:33;100168.72;;;14.69;89.30
19736;BME280;32064;49.310;8.646;2022-11-09T02:11:12;100169.81;;;14.66;88.56
19736;BME280;32064;49.310;8.646;2022-11-09T02:13:41;100163.16;;;14.62;89.17
19736;BME280;32064;49.310;8.646;2022-11-09T02:16:09;100153.94;;;14.66;89.35
19736;BME280;32064;49.310;8.646;2022-11-09T02:18:35;100168.44;;;14.72;88.85
19736;BME280;32064;49.310;8.646;2022-11-09T02:21:01;100156.06;;;14.72;89.13
19736;BME280;32064;49.310;8.646;2022-11-09T02:23:27;100161.06;;;14.75;88.88
19736;BME280;32064;49.310;8.646;2022-11-09T02:26:00;100156.72;;;14.74;89.32
19736;BME280;32064;49.310;8.646;2022-11-09T02:28:28;100161.75;;;14.77;89.58
19736;BME280;32064;49.310;8.646;2022-11-09T02:30:55;100151.00;;;14.79;89.33
19736;BME280;32064;49.310;8.646;2022-11-09T02:33:21;100150.88;;;14.80;89.78
19736;BME280;32064;49.310;8.646;2022-11-09T02:35:47;100146.13;;;14.84;88.93
19736;BME280;32064;49.310;8.646;2022-11-09T02:38:13;100152.25;;;14.85;89.05
19736;BME280;32064;49.310;8.646;2022-11-09T02:40:41;100154.09;;;14.84;89.66
19736;BME280;32064;49.310;8.646;2022-11-09T02:43:08;100158.94;;;14.89;89.03
19736;BME280;32064;49.310;8.646;2022-11-09T02:45:35;100148.34;;;14.89;89.38
19736;BME280;32064;49.310;8.646;2022-11-09T02:48:00;100145.56;;;14.90;88.89
19736;BME280;32064;49.310;8.646;2022-11-09T02:50:26;100149.19;;;14.89;89.97
19736;BME280;32064;49.310;8.646;2022-11-09T02:52:51;100149.19;;;14.89;89.72
19736;BME280;32064;49.310;8.646;2022-11-09T02:55:17;100150.03;;;14.90;90.02
19736;BME280;32064;49.310;8.646;2022-11-09T02:57:42;100148.78;;;14.84;90.09
19736;BME280;32064;49.310;8.646;2022-11-09T03:00:08;100145.72;;;14.79;90.43
19736;BME280;32064;49.310;8.646;2022-11-09T03:02:34;100141.13;;;14.81;90.85
19736;BME280;32064;49.310;8.646;2022-11-09T03:05:00;100140.41;;;14.79;90.87
19736;BME280;32064;49.310;8.646;2022-11-09T03:07:25;100128.00;;;14.79;90.92
19736;BME280;32064;49.310;8.646;2022-11-09T03:09:51;100125.09;;;14.73;90.64
19736;BME280;32064;49.310;8.646;2022-11-09T03:12:18;100117.00;;;14.74;90.24
19736;BME280;32064;49.310;8.646;2022-11-09T03:14:53;100120.22;;;14.68;91.29
19736;BME280;32064;49.310;8.646;2022-11-09T03:17:19;100121.91;;;14.69;91.67
19736;BME280;32064;49.310;8.646;2022-11-09T03:19:45;100119.25;;;14.69;91.19
19736;BME280;32064;49.310;8.646;2022-11-09T03:22:10;100114.50;;;14.63;91.58
19736;BME280;32064;49.310;8.646;2022-11-09T03:24:36;100118.97;;;14.63;92.27
19736;BME280;32064;49.310;8.646;2022-11-09T03:27:01;100122.59;;;14.62;92.56
19736;BME280;32064;49.310;8.646;2022-11-09T03:29:26;100120.38;;;14.67;92.04
19736;BME280;32064;49.310;8.646;2022-11-09T03:31:52;100121.75;;;14.71;92.13
19736;BME280;32064;49.310;8.646;2022-11-09T03:34:17;100116.63;;;14.69;92.42
19736;BME280;32064;49.310;8.646;2022-11-09T03:36:42;100117.00;;;14.74;92.04
19736;BME280;32064;49.310;8.646;2022-11-09T03:39:08;100126.06;;;14.72;92.92
19736;BME280;32064;49.310;8.646;2022-11-09T03:41:33;100127.31;;;14.77;92.82
19736;BME280;32064;49.310;8.646;2022-11-09T03:43:59;100120.63;;;14.73;93.14
19736;BME280;32064;49.310;8.646;2022-11-09T03:46:24;100131.50;;;14.80;92.60
19736;BME280;32064;49.310;8.646;2022-11-09T03:48:50;100141.78;;;14.83;93.25
19736;BME280;32064;49.310;8.646;2022-11-09T03:51:15;100140.69;;;14.86;93.16
19736;BME280;32064;49.310;8.646;2022-11-09T03:53:41;100140.28;;;14.80;93.71
19736;BME280;32064;49.310;8.646;2022-11-09T03:56:06;100141.78;;;14.83;93.55
19736;BME280;32064;49.310;8.646;2022-11-09T03:58:31;100141.38;;;14.88;93.83
19736;BME280;32064;49.310;8.646;2022-11-09T04:00:57;100146.56;;;14.89;93.91
19736;BME280;32064;49.310;8.646;2022-11-09T04:03:22;100137.06;;;14.87;94.10
19736;BME280;32064;49.310;8.646;2022-11-09T04:05:48;100142.63;;;14.93;93.08
19736;BME280;32064;49.310;8.646;2022-11-09T04:08:13;100148.22;;;14.90;93.02
19736;BME280;32064;49.310;8.646;2022-11-09T04:10:38;100155.88;;;14.93;93.17
19736;BME280;32064;49.310;8.646;2022-11-09T04:13:04;100168.41;;;14.91;93.89
19736;BME280;32064;49.310;8.646;2022-11-09T04:15:29;100161.31;;;14.92;93.28
19736;BME280;32064;49.310;8.646;2022-11-09T04:17:59;100169.25;;;14.92;93.49
19736;BME280;32064;49.310;8.646;2022-11-09T04:20:27;100169.41;;;14.90;93.98
19736;BME280;32064;49.310;8.646;2022-11-09T04:22:58;100156.56;;;14.86;94.35
19736;BME280;32064;49.310;8.646;2022-11-09T04:25:24;100165.66;;;14.93;93.93
19736;BME280;32064;49.310;8.646;2022-11-09T04:27:55;100168.41;;;14.91;94.30
19736;BME280;32064;49.310;8.646;2022-11-09T04:30:20;100176.09;;;14.94;93.56
19736;BME280;32064;49.310;8.646;2022-11-09T04:32:46;100168.13;;;14.94;94.04
19736;BME280;32064;49.310;8.646;2022-11-09T04:35:11;100169.94;;;14.94;93.94
19736;BME280;32064;49.310;8.646;2022-11-09T04:37:37;100162.84;;;14.94;93.67
19736;BME280;32064;49.310;8.646;2022-11-09T04:40:02;100158.66;;;14.92;94.32
19736;BME280;32064;49.310;8.646;2022-11-09T04:42:28;100155.03;;;14.93;93.55
19736;BME280;32064;49.310;8.646;2022-11-09T04:44:53;100143.19;;;14.97;94.14
19736;BME280;32064;49.310;8.646;2022-11-09T04:47:18;100135.38;;;14.86;94.31
19736;BME280;32064;49.310;8.646;2022-11-09T04:49:44;100142.22;;;14.88;94.32
19736;BME280;32064;49.310;8.646;2022-11-09T04:52:09;100135.66;;;14.82;94.87
19736;BME280;32064;49.310;8.646;2022-11-09T04:54:34;100120.78;;;14.81;94.84
19736;BME280;32064;49.310;8.646;2022-11-09T04:57:00;100127.44;;;14.86;95.06
19736;BME280;32064;49.310;8.646;2022-11-09T04:59:25;100128.44;;;14.85;95.49
19736;BME280;32064;49.310;8.646;2022-11-09T05:01:51;100119.66;;;14.84;95.51
19736;BME280;32064;49.310;8.646;2022-11-09T05:04:16;100133.31;;;14.89;94.85
19736;BME280;32064;49.310;8.646;2022-11-09T05:06:41;100123.38;;;14.91;95.32
19736;BME280;32064;49.310;8.646;2022-11-09T05:09:07;100127.44;;;14.95;95.25
19736;BME280;32064;49.310;8.646;2022-11-09T05:11:33;100133.56;;;14.96;94.91
19736;BME280;32064;49.310;8.646;2022-11-09T05:14:00;100139.69;;;14.96;94.54
19736;BME280;32064;49.310;8.646;2022-11-09T05:16:29;100145.69;;;14.98;94.70
19736;BME280;32064;49.310;8.646;2022-11-09T05:18:55;100146.81;;;14.96;94.87
19736;BME280;32064;49.310;8.646;2022-11-09T05:21:21;100154.34;;;15.00;94.91
19736;BME280;32064;49.310;8.646;2022-11-09T05:23:46;100167.31;;;15.03;95.12
19736;BME280;32064;49.310;8.646;2022-11-09T05:26:36;100176.50;;;14.99;95.24
19736;BME280;32064;49.310;8.646;2022-11-09T05:29:04;100178.56;;;15.05;94.33
19736;BME280;32064;49.310;8.646;2022-11-09T05:31:30;100167.97;;;15.05;95.45
19736;BME280;32064;49.310;8.646;2022-11-09T05:33:56;100162.25;;;15.10;94.33
19736;BME280;32064;49.310;8.646;2022-11-09T05:36:22;100162.25;;;15.10;94.30
19736;BME280;32064;49.310;8.646;2022-11-09T05:38:48;100171.88;;;15.11;94.60
19736;BME280;32064;49.310;8.646;2022-11-09T05:41:14;100173.97;;;15.08;94.61
19736;BME280;32064;49.310;8.646;2022-11-09T05:43:40;100177.34;;;15.10;94.23
19736;BME280;32064;49.310;8.646;2022-11-09T05:46:06;100188.63;;;15.12;94.41
19736;BME280;32064;49.310;8.646;2022-11-09T05:48:31;100191.28;;;15.12;94.48
19736;BME280;32064;49.310;8.646;2022-11-09T05:51:03;100191.69;;;15.07;94.60
19736;BME280;32064;49.310;8.646;2022-11-09T05:53:30;100184.88;;;15.04;94.43
19736;BME280;32064;49.310;8.646;2022-11-09T05:56:00;100193.81;;;15.03;94.44
19736;BME280;32064;49.310;8.646;2022-11-09T05:58:26;100192.81;;;15.04;95.05
19736;BME280;32064;49.310;8.646;2022-11-09T06:00:52;100194.09;;;15.00;94.56
19736;BME280;32064;49.310;8.646;2022-11-09T06:03:17;100194.63;;;15.04;94.92
19736;BME280;32064;49.310;8.646;2022-11-09T06:05:42;100198.25;;;15.03;94.22
19736;BME280;32064;49.310;8.646;2022-11-09T06:08:13;100201.47;;;14.97;95.44
19736;BME280;32064;49.310;8.646;2022-11-09T06:10:39;100206.88;;;15.05;95.13
19736;BME280;32064;49.310;8.646;2022-11-09T06:13:04;100215.69;;;14.96;95.87
19736;BME280;32064;49.310;8.646;2022-11-09T06:15:30;100215.28;;;15.00;94.97
19736;BME280;32064;49.310;8.646;2022-11-09T06:17:57;100216.66;;;15.04;94.81
19736;BME280;32064;49.310;8.646;2022-11-09T06:20:24;100205.22;;;15.04;95.48
19736;BME280;32064;49.310;8.646;2022-11-09T06:22:55;100214.03;;;14.95;95.73
19736;BME280;32064;49.310;8.646;2022-11-09T06:25:21;100193.94;;;14.92;96.18
19736;BME280;32064;49.310;8.646;2022-11-09T06:27:46;100183.63;;;14.89;95.81
19736;BME280;32064;49.310;8.646;2022-11-09T06:30:12;100177.47;;;14.89;96.42
19736;BME280;32064;49.310;8.646;2022-11-09T06:32:38;100195.75;;;14.92;95.97
19736;BME280;32064;49.310;8.646;2022-11-09T06:35:04;100203.00;;;14.90;96.64
19736;BME280;32064;49.310;8.646;2022-11-09T06:37:29;100205.22;;;14.94;95.88
19736;BME280;32064;49.310;8.646;2022-11-09T06:39:54;100202.72;;;14.93;96.41
19736;BME280;32064;49.310;8.646;2022-11-09T06:42:20;100214.28;;;14.92;96.86
19736;BME280;32064;49.310;8.646;2022-11-09T06:44:45;100209.13;;;14.90;97.23
19736;BME280;32064;49.310;8.646;2022-11-09T06:47:10;100206.09;;;14.95;96.64
19736;BME280;32064;49.310;8.646;2022-11-09T06:49:36;100201.91;;;14.92;97.17
19736;BME280;32064;49.310;8.646;2022-11-09T06:52:01;100206.91;;;14.95;96.15
19736;BME280;32064;49.310;8.646;2022-11-09T06:54:27;100208.72;;;14.95;97.78
19736;BME280;32064;49.310;8.646;2022-11-09T06:56:53;100208.97;;;14.92;97.70
19736;BME280;32064;49.310;8.646;2022-11-09T06:59:19;100218.06;;;14.99;96.67
19736;BME280;32064;49.310;8.646;2022-11-09T07:01:44;100213.47;;;15.01;96.87
19736;BME280;32064;49.310;8.646;2022-11-09T07:04:11;100218.06;;;14.99;97.02
19736;BME280;32064;49.310;8.646;2022-11-09T07:06:39;100218.47;;;14.94;97.66
19736;BME280;32064;49.310;8.646;2022-11-09T07:09:05;100217.22;;;14.98;96.93
19736;BME280;32064;49.310;8.646;2022-11-09T07:11:30;100219.72;;;15.00;97.09
19736;BME280;32064;49.310;8.646;2022-11-09T07:13:56;100219.31;;;14.95;98.21
19736;BME280;32064;49.310;8.646;2022-11-09T07:16:21;100215.44;;;14.89;98.39
19736;BME280;32064;49.310;8.646;2022-11-09T07:18:46;100208.84;;;14.93;98.12
19736;BME280;32064;49.310;8.646;2022-11-09T07:21:12;100212.63;;;14.91;98.78
19736;BME280;32064;49.310;8.646;2022-11-09T07:23:38;100218.47;;;14.94;99.09
19736;BME280;32064;49.310;8.646;2022-11-09T07:26:03;100204.84;;;14.89;99.35
19736;BME280;32064;49.310;8.646;2022-11-09T07:28:29;100221.00;;;14.96;98.63
19736;BME280;32064;49.310;8.646;2022-11-09T07:30:56;100216.25;;;14.90;100.00
19736;BME280;32064;49.310;8.646;2022-11-09T07:33:22;100226.00;;;14.99;99.24
19736;BME280;32064;49.310;8.646;2022-11-09T07:35:47;100221.41;;;15.01;99.22
19736;BME280;32064;49.310;8.646;2022-11-09T07:38:13;100225.31;;;15.07;98.41
19736;BME280;32064;49.310;8.646;2022-11-09T07:40:40;100239.09;;;15.10;98.72
19736;BME280;32064;49.310;8.646;2022-11-09T07:43:06;100230.59;;;15.07;99.71
19736;BME280;32064;49.310;8.646;2022-11-09T07:45:33;100229.22;;;15.12;99.21
19736;BME280;32064;49.310;8.646;2022-11-09T07:48:01;100228.38;;;15.12;98.80
19736;BME280;32064;49.310;8.646;2022-11-09T07:50:28;100223.47;;;15.17;99.23
19736;BME280;32064;49.310;8.646;2022-11-09T07:52:55;100208.44;;;15.17;98.81
19736;BME280;32064;49.310;8.646;2022-11-09T07:55:21;100200.47;;;15.17;98.79
19736;BME280;32064;49.310;8.646;2022-11-09T07:57:46;100213.16;;;15.23;98.71
19736;BME280;32064;49.310;8.646;2022-11-09T08:00:12;100210.34;;;15.25;97.56
19736;BME280;32064;49.310;8.646;2022-11-09T08:02:39;100232.66;;;15.32;97.84
19736;BME280;32064;49.310;8.646;2022-11-09T08:05:04;100237.81;;;15.34;96.91
19736;BME280;32064;49.310;8.646;2022-11-09T08:07:30;100228.75;;;15.36;97.35
19736;BME280;32064;49.310;8.646;2022-11-09T08:09:57;100229.44;;;15.38;97.04
19736;BME280;32064;49.310;8.646;2022-11-09T08:12:22;100236.69;;;15.36;96.67
19736;BME280;32064;49.310;8.646;2022-11-09T08:14:48;100240.47;;;15.43;96.05
19736;BME280;32064;49.310;8.646;2022-11-09T08:17:13;100258.97;;;15.53;95.90
19736;BME280;32064;49.310;8.646;2022-11-09T08:19:38;100265.69;;;15.57;96.66
19736;BME280;32064;49.310;8.646;2022-11-09T08:22:04;100269.72;;;15.61;96.60
19736;BME280;32064;49.310;8.646;2022-11-09T08:24:29;100265.94;;;15.64;96.38
19736;BME280;32064;49.310;8.646;2022-11-09T08:26:54;100285.34;;;15.64;95.98
19736;BME280;32064;49.310;8.646;2022-11-09T08:29:20;100280.75;;;15.66;95.13
19736;BME280;32064;49.310;8.646;2022-11-09T08:31:48;100271.13;;;15.65;95.47
19736;BME280;32064;49.310;8.646;2022-11-09T08:34:14;100273.34;;;15.70;95.55
19736;BME280;32064;49.310;8.646;2022-11-09T08:36:40;100275.59;;;15.75;94.15
19736;BME280;32064;49.310;8.646;2022-11-09T08:39:05;100276.41;;;15.75;94.26
19736;BME280;32064;49.310;8.646;2022-11-09T08:41:30;100269.16;;;15.77;94.98
19736;BME280;32064;49.310;8.646;2022-11-09T08:43:56;100291.47;;;15.84;94.12
19736;BME280;32064;49.310;8.646;2022-11-09T08:46:21;100281.25;;;15.89;94.11
19736;BME280;32064;49.310;8.646;2022-11-09T08:48:46;100286.56;;;15.89;94.83
19736;BME280;32064;49.310;8.646;2022-11-09T08:51:12;100287.09;;;15.93;94.71
19736;BME280;32064;49.310;8.646;2022-11-09T08:53:37;100273.41;;;15.98;93.82
19736;BME280;32064;49.310;8.646;2022-11-09T08:56:06;100283.19;;;15.97;94.45
19736;BME280;32064;49.310;8.646;2022-11-09T08:58:32;100278.97;;;16.04;94.54
19736;BME280;32064;49.310;8.646;2022-11-09T09:00:57;100286.19;;;16.12;94.49
19736;BME280;32064;49.310;8.646;2022-11-09T09:03:23;100292.56;;;16.19;93.97
19736;BME280;32064;49.310;8.646;2022-11-09T09:05:48;100293.69;;;16.26;93.85
19736;BME280;32064;49.310;8.646;2022-11-09T09:08:14;100291.34;;;16.41;92.59
19736;BME280;32064;49.310;8.646;2022-11-09T09:10:41;100283.97;;;16.63;92.30
19736;BME280;32064;49.310;8.646;2022-11-09T09:13:06;100295.13;;;17.30;91.16
19736;BME280;32064;49.310;8.646;2022-11-09T09:15:32;100290.00;;;18.57;88.56
19736;BME280;32064;49.310;8.646;2022-11-09T09:17:59;100289.97;;;19.57;83.45
19736;BME280;32064;49.310;8.646;2022-11-09T09:20:25;100295.56;;;20.50;81.58
19736;BME280;32064;49.310;8.646;2022-11-09T09:22:50;100289.09;;;21.45;77.67
19736;BME280;32064;49.310;8.646;2022-11-09T09:25:16;100280.00;;;21.84;77.13
19736;BME280;32064;49.310;8.646;2022-11-09T09:27:42;100283.81;;;22.19;74.62
19736;BME280;32064;49.310;8.646;2022-11-09T09:30:08;100287.56;;;22.54;72.17
19736;BME280;32064;49.310;8.646;2022-11-09T09:32:34;100295.88;;;22.59;71.84
19736;BME280;32064;49.310;8.646;2022-11-09T09:34:59;100295.19;;;22.21;72.05
19736;BME280;32064;49.310;8.646;2022-11-09T09:37:25;100294.34;;;22.35;71.20
19736;BME280;32064;49.310;8.646;2022-11-09T09:39:50;100302.03;;;22.24;69.71
19736;BME280;32064;49.310;8.646;2022-11-09T09:42:32;100290.94;;;21.97;65.80
19736;BME280;32064;49.310;8.646;2022-11-09T09:45:02;100297.84;;;22.51;67.59
19736;BME280;32064;49.310;8.646;2022-11-09T09:50:04;100294.44;;;22.42;67.14
19736;BME280;32064;49.310;8.646;2022-11-09T09:52:39;100292.03;;;22.32;66.66
19736;BME280;32064;49.310;8.646;2022-11-09T09:57:47;100314.16;;;23.07;67.04
19736;BME280;32064;49.310;8.646;2022-11-09T10:00:25;100319.84;;;23.68;65.60
19736;BME280;32064;49.310;8.646;2022-11-09T10:02:52;100319.38;;;23.86;65.02
19736;BME280;32064;49.310;8.646;2022-11-09T10:05:19;100319.75;;;23.27;66.74
19736;BME280;32064;49.310;8.646;2022-11-09T10:08:15;100320.81;;;22.75;65.73
19736;BME280;32064;49.310;8.646;2022-11-09T10:11:00;100318.09;;;22.53;68.20
19736;BME280;32064;49.310;8.646;2022-11-09T10:14:28;100316.78;;;22.05;67.97
19736;BME280;32064;49.310;8.646;2022-11-09T10:22:25;100301.03;;;21.34;70.61
19736;BME280;32064;49.310;8.646;2022-11-09T10:24:59;100298.88;;;21.15;71.13
19736;BME280;32064;49.310;8.646;2022-11-09T10:27:39;100293.16;;;20.95;72.02
19736;BME280;32064;49.310;8.646;2022-11-09T10:30:12;100301.09;;;20.80;72.37
19736;BME280;32064;49.310;8.646;2022-11-09T10:32:40;100290.63;;;20.70;73.08
19736;BME280;32064;49.310;8.646;2022-11-09T10:37:41;100293.72;;;20.59;73.33
19736;BME280;32064;49.310;8.646;2022-11-09T10:42:32;100287.69;;;20.49;73.47
19736;BME280;32064;49.310;8.646;2022-11-09T10:45:05;100282.75;;;20.37;73.36
19736;BME280;32064;49.310;8.646;2022-11-09T10:47:49;100296.50;;;20.26;74.28
19736;BME280;32064;49.310;8.646;2022-11-09T10:50:45;100289.84;;;20.22;74.10
19736;BME280;32064;49.310;8.646;2022-11-09T10:53:29;100279.75;;;20.32;73.69
19736;BME280;32064;49.310;8.646;2022-11-09T10:58:47;100281.25;;;20.35;74.78
19736;BME280;32064;49.310;8.646;2022-11-09T11:01:16;100286.41;;;20.45;74.98
19736;BME280;32064;49.310;8.646;2022-11-09T11:03:43;100288.72;;;20.56;74.43
19736;BME280;32064;49.310;8.646;2022-11-09T11:06:17;100285.53;;;20.52;74.88
19736;BME280;32064;49.310;8.646;2022-11-09T11:11:27;100286.34;;;20.61;74.43
19736;BME280;32064;49.310;8.646;2022-11-09T11:16:46;100284.31;;;20.63;74.86
19736;BME280;32064;49.310;8.646;2022-11-09T11:25:01;100264.47;;;20.57;73.89
19736;BME280;32064;49.310;8.646;2022-11-09T11:27:46;100270.72;;;20.41;74.34
19736;BME280;32064;49.310;8.646;2022-11-09T11:30:17;100279.56;;;20.42;74.11
19736;BME280;32064;49.310;8.646;2022-11-09T11:32:43;100271.03;;;20.47;74.40
19736;BME280;32064;49.310;8.646;2022-11-09T11:35:13;100269.88;;;20.41;73.87
19736;BME280;32064;49.310;8.646;2022-11-09T11:37:47;100265.06;;;20.36;74.04
19736;BME280;32064;49.310;8.646;2022-11-09T11:40:33;100270.13;;;20.23;74.88
19736;BME280;32064;49.310;8.646;2022-11-09T11:43:26;100265.31;;;20.18;74.78
19736;BME280;32064;49.310;8.646;2022-11-09T11:46:20;100261.16;;;20.16;74.87
19736;BME280;32064;49.310;8.646;2022-11-09T12:00:12;100264.16;;;20.13;75.44
19736;BME280;32064;49.310;8.646;2022-11-09T12:03:05;100261.19;;;20.08;75.07
19736;BME280;32064;49.310;8.646;2022-11-09T12:11:37;100266.72;;;19.90;76.26
19736;BME280;32064;49.310;8.646;2022-11-09T12:14:31;100262.28;;;19.74;76.21
19736;BME280;32064;49.310;8.646;2022-11-09T12:25:35;100258.97;;;19.39;77.59
19736;BME280;32064;49.310;8.646;2022-11-09T12:28:32;100256.47;;;19.29;76.89
19736;BME280;32064;49.310;8.646;2022-11-09T12:31:19;100251.31;;;19.28;78.13
19736;BME280;32064;49.310;8.646;2022-11-09T12:36:31;100256.94;;;19.33;77.77
19736;BME280;32064;49.310;8.646;2022-11-09T12:39:13;100259.81;;;19.32;77.85
19736;BME280;32064;49.310;8.646;2022-11-09T12:41:42;100258.16;;;19.31;78.47
19736;BME280;32064;49.310;8.646;2022-11-09T12:44:19;100253.78;;;19.29;77.83
19736;BME280;32064;49.310;8.646;2022-11-09T12:46:54;100253.13;;;19.27;77.54
19736;BME280;32064;49.310;8.646;2022-11-09T12:49:35;100258.16;;;19.31;78.20
19736;BME280;32064;49.310;8.646;2022-11-09T12:52:03;100253.66;;;19.31;79.08
19736;BME280;32064;49.310;8.646;2022-11-09T12:54:29;100263.16;;;19.34;77.89
19736;BME280;32064;49.310;8.646;2022-11-09T12:57:13;100255.78;;;19.27;78.54
19736;BME280;32064;49.310;8.646;2022-11-09T12:59:50;100257.47;;;19.28;78.64
19736;BME280;32064;49.310;8.646;2022-11-09T13:04:59;100250.31;;;19.29;78.50
19736;BME280;32064;49.310;8.646;2022-11-09T13:07:30;100254.81;;;19.28;77.84
19736;BME280;32064;49.310;8.646;2022-11-09T13:09:59;100262.81;;;19.28;77.48
19736;BME280;32064;49.310;8.646;2022-11-09T13:12:33;100257.63;;;19.27;76.97
19736;BME280;32064;49.310;8.646;2022-11-09T13:15:21;100260.63;;;19.16;76.88
19736;BME280;32064;49.310;8.646;2022-11-09T13:23:02;100261.78;;;19.05;77.97
19736;BME280;32064;49.310;8.646;2022-11-09T13:30:58;100266.63;;;18.93;78.93
19736;BME280;32064;49.310;8.646;2022-11-09T13:33:32;100266.81;;;18.92;79.07
19736;BME280;32064;49.310;8.646;2022-11-09T13:38:34;100268.13;;;18.88;79.19
19736;BME280;32064;49.310;8.646;2022-11-09T13:41:38;100266.31;;;18.88;77.96
19736;BME280;32064;49.310;8.646;2022-11-09T13:43:46;100261.81;;;18.89;78.65
19736;BME280;32064;49.310;8.646;2022-11-09T13:46:28;100266.13;;;18.81;77.79
19736;BME280;32064;49.310;8.646;2022-11-09T13:48:57;100270.97;;;18.86;78.47
19736;BME280;32064;49.310;8.646;2022-11-09T13:51:45;100264.47;;;18.80;79.57
19736;BME280;32064;49.310;8.646;2022-11-09T13:56:53;100266.44;;;18.78;77.41
19736;BME280;32064;49.310;8.646;2022-11-09T13:59:27;100270.25;;;18.76;77.08
19736;BME280;32064;49.310;8.646;2022-11-09T14:01:59;100268.63;;;18.75;77.41
19736;BME280;32064;49.310;8.646;2022-11-09T14:04:38;100276.72;;;18.73;78.02
19736;BME280;32064;49.310;8.646;2022-11-09T14:10:02;100264.72;;;18.61;76.82
19736;BME280;32064;49.310;8.646;2022-11-09T14:13:14;100283.69;;;18.58;77.55
19736;BME280;32064;49.310;8.646;2022-11-09T14:18:31;100292.66;;;18.57;79.20
19736;BME280;32064;49.310;8.646;2022-11-09T14:23:50;100291.16;;;18.46;79.00